createdAt,value
2023-01-25T00:01:11.855Z,31.10
2023-01-25T00:03:39.020Z,29.43
2023-01-25T00:06:06.580Z,30.40
2023-01-25T00:08:33.778Z,31.10
2023-01-25T00:11:00.914Z,26.00
2023-01-25T00:13:28.094Z,27.97
2023-01-25T00:16:05.161Z,30.40
2023-01-25T00:18:32.367Z,36.27
2023-01-25T00:20:59.547Z,35.23
2023-01-25T00:23:26.836Z,30.33
2023-01-25T00:25:59.904Z,30.53
2023-01-25T00:28:27.154Z,37.80
2023-01-25T00:30:54.361Z,33.73
2023-01-25T00:33:46.046Z,29.90
2023-01-25T00:36:40.498Z,33.70
2023-01-25T00:39:13.169Z,31.37
2023-01-25T00:41:41.201Z,35.57
2023-01-25T00:44:08.729Z,32.37
2023-01-25T00:46:36.583Z,36.87
2023-01-25T00:49:06.989Z,32.75
2023-01-25T00:51:34.410Z,35.03
2023-01-25T00:54:01.653Z,42.33
2023-01-25T00:56:29.009Z,32.20
2023-01-25T00:58:56.242Z,31.23
2023-01-25T01:01:23.603Z,40.27
2023-01-25T01:03:52.679Z,47.27
2023-01-25T01:06:19.987Z,39.80
2023-01-25T01:08:47.230Z,45.93
2023-01-25T01:11:14.456Z,41.53
2023-01-25T01:13:41.784Z,43.33
2023-01-25T01:16:12.241Z,41.73
2023-01-25T01:18:45.816Z,61.38
2023-01-25T01:21:14.625Z,55.93
2023-01-25T01:23:42.089Z,40.23
2023-01-25T01:26:14.040Z,35.87
2023-01-25T01:28:42.096Z,42.73
2023-01-25T01:31:17.809Z,38.43
2023-01-25T01:34:01.178Z,71.45
2023-01-25T01:36:30.783Z,52.53
2023-01-25T01:38:59.970Z,50.40
2023-01-25T01:41:27.937Z,43.63
2023-01-25T01:43:55.403Z,61.83
2023-01-25T01:46:37.571Z,42.57
2023-01-25T01:49:27.964Z,46.20
2023-01-25T01:52:13.201Z,49.67
2023-01-25T01:55:01.646Z,47.50
2023-01-25T01:57:53.833Z,37.30
2023-01-25T02:00:28.579Z,43.80
2023-01-25T02:02:56.293Z,48.40
2023-01-25T02:05:35.876Z,41.10
2023-01-25T02:08:05.659Z,43.25
2023-01-25T02:10:34.099Z,52.60
2023-01-25T02:13:01.638Z,53.87
2023-01-25T02:15:43.726Z,41.37
2023-01-25T02:18:12.522Z,69.13
2023-01-25T02:20:48.520Z,43.40
2023-01-25T02:23:51.611Z,56.53
2023-01-25T02:26:19.775Z,56.70
2023-01-25T02:29:07.174Z,46.07
2023-01-25T02:31:34.808Z,54.43
2023-01-25T02:34:02.108Z,61.53
2023-01-25T02:36:33.172Z,61.23
2023-01-25T02:39:17.304Z,48.30
2023-01-25T02:41:50.364Z,56.53
2023-01-25T02:44:21.936Z,53.90
2023-01-25T02:46:49.420Z,52.70
2023-01-25T02:49:17.301Z,56.87
2023-01-25T02:51:49.841Z,49.43
2023-01-25T02:54:19.649Z,49.87
2023-01-25T02:56:50.152Z,52.75
2023-01-25T02:59:19.086Z,67.90
2023-01-25T03:01:50.898Z,66.40
2023-01-25T03:04:18.667Z,62.40
2023-01-25T03:06:46.034Z,49.97
2023-01-25T03:09:13.453Z,63.87
2023-01-25T03:11:45.202Z,56.53
2023-01-25T03:14:15.114Z,63.03
2023-01-25T03:16:42.341Z,46.72
2023-01-25T03:19:09.831Z,53.10
2023-01-25T03:21:41.560Z,58.57
2023-01-25T03:24:10.588Z,63.90
2023-01-25T03:27:02.315Z,49.13
2023-01-25T03:29:38.442Z,51.27
2023-01-25T03:32:14.108Z,47.83
2023-01-25T03:34:41.704Z,46.67
2023-01-25T03:37:09.958Z,53.00
2023-01-25T03:39:39.219Z,42.60
2023-01-25T03:42:06.600Z,46.57
2023-01-25T03:44:33.898Z,122.13
2023-01-25T03:47:01.521Z,52.57
2023-01-25T03:49:29.990Z,40.67
2023-01-25T03:51:58.723Z,58.40
2023-01-25T03:54:38.168Z,59.55
2023-01-25T03:57:07.327Z,35.27
2023-01-25T03:59:42.393Z,33.00
2023-01-25T04:02:09.685Z,47.80
2023-01-25T04:04:36.906Z,43.53
2023-01-25T04:07:04.329Z,56.10
2023-01-25T04:09:33.289Z,51.80
2023-01-25T04:12:00.564Z,41.10
2023-01-25T04:14:43.272Z,49.67
2023-01-25T04:17:14.194Z,70.60
2023-01-25T04:19:53.983Z,53.30
2023-01-25T04:22:25.673Z,73.03
2023-01-25T04:24:55.459Z,84.97
2023-01-25T04:27:22.842Z,47.97
2023-01-25T04:29:57.795Z,56.83
2023-01-25T04:32:26.826Z,72.47
2023-01-25T04:34:54.531Z,132.40
2023-01-25T04:37:24.282Z,61.53
2023-01-25T04:39:55.868Z,58.90
2023-01-25T04:42:23.396Z,108.47
2023-01-25T04:44:54.363Z,59.83
2023-01-25T04:47:21.893Z,55.80
2023-01-25T04:49:49.111Z,72.00
2023-01-25T04:52:19.249Z,104.40
2023-01-25T04:54:46.436Z,71.53
2023-01-25T04:57:13.803Z,75.70
2023-01-25T04:59:46.331Z,70.80
2023-01-25T05:02:14.825Z,60.67
2023-01-25T05:04:42.447Z,61.77
2023-01-25T05:07:09.766Z,64.53
2023-01-25T05:09:37.102Z,52.13
2023-01-25T05:12:11.654Z,47.43
2023-01-25T05:14:51.587Z,45.40
2023-01-25T05:17:18.848Z,57.77
2023-01-25T05:19:46.182Z,37.70
2023-01-25T05:22:20.771Z,25.00
2023-01-25T05:24:51.502Z,38.70
2023-01-25T05:27:21.394Z,57.97
2023-01-25T05:29:55.158Z,67.63
2023-01-25T05:32:50.482Z,48.67
2023-01-25T05:35:18.344Z,38.27
2023-01-25T05:37:46.341Z,33.90
2023-01-25T05:40:21.998Z,35.20
2023-01-25T05:43:00.163Z,31.90
2023-01-25T05:45:30.247Z,28.37
2023-01-25T05:47:59.106Z,33.93
2023-01-25T05:50:26.939Z,29.23
2023-01-25T05:53:04.634Z,26.27
2023-01-25T05:55:31.994Z,45.43
2023-01-25T05:58:04.385Z,39.30
2023-01-25T06:00:32.255Z,46.20
2023-01-25T06:03:02.368Z,42.30
2023-01-25T06:05:31.947Z,45.30
2023-01-25T06:07:59.731Z,33.97
2023-01-25T06:10:33.138Z,31.37
2023-01-25T06:13:00.773Z,24.50
2023-01-25T06:15:28.135Z,31.03
2023-01-25T06:18:02.449Z,29.33
2023-01-25T06:20:56.320Z,23.75
2023-01-25T06:23:29.428Z,18.93
2023-01-25T06:26:03.228Z,24.50
2023-01-25T06:28:32.704Z,20.17
2023-01-25T06:31:18.002Z,16.37
2023-01-25T06:33:50.820Z,18.53
2023-01-25T06:36:22.715Z,22.93
2023-01-25T06:38:52.200Z,16.80
2023-01-25T06:41:20.313Z,22.33
2023-01-25T06:43:50.656Z,21.77
2023-01-25T06:46:18.378Z,21.10
2023-01-25T06:48:45.850Z,17.03
2023-01-25T06:51:15.128Z,21.73
2023-01-25T06:53:44.901Z,21.97
2023-01-25T06:56:21.919Z,19.73
2023-01-25T06:58:50.689Z,19.13
2023-01-25T07:01:21.427Z,21.00
2023-01-25T07:06:18.113Z,21.47
2023-01-25T07:08:45.992Z,25.87
2023-01-25T07:11:14.723Z,24.97
2023-01-25T07:13:46.081Z,21.40
2023-01-25T07:16:18.697Z,28.93
2023-01-25T07:18:46.287Z,26.10
2023-01-25T07:21:22.863Z,24.40
2023-01-25T07:23:51.630Z,24.60
2023-01-25T07:26:21.199Z,24.47
2023-01-25T07:28:49.736Z,24.33
2023-01-25T07:31:18.627Z,17.03
2023-01-25T07:33:55.228Z,15.70
2023-01-25T07:36:23.381Z,23.40
2023-01-25T07:38:55.114Z,25.97
2023-01-25T07:41:24.718Z,30.40
2023-01-25T07:43:53.324Z,23.98
2023-01-25T07:46:39.956Z,27.17
2023-01-25T07:49:07.266Z,26.63
2023-01-25T07:51:34.506Z,27.07
2023-01-25T07:54:04.846Z,27.70
2023-01-25T07:56:40.836Z,25.38
2023-01-25T07:59:12.565Z,24.87
2023-01-25T08:01:40.254Z,27.57
2023-01-25T08:04:09.211Z,21.87
2023-01-25T08:06:41.142Z,23.07
2023-01-25T08:09:16.184Z,26.40
2023-01-25T08:11:43.682Z,23.07
2023-01-25T08:14:11.504Z,23.63
2023-01-25T08:16:38.925Z,19.07
2023-01-25T08:19:06.249Z,21.23
2023-01-25T08:21:35.988Z,24.50
2023-01-25T08:24:07.160Z,23.03
2023-01-25T08:26:36.315Z,22.33
2023-01-25T08:29:04.994Z,21.63
2023-01-25T08:31:35.525Z,21.80
2023-01-25T08:34:03.752Z,17.27
2023-01-25T08:36:31.117Z,22.10
2023-01-25T08:39:09.080Z,22.37
2023-01-25T08:41:36.907Z,26.73
2023-01-25T08:44:05.175Z,30.30
2023-01-25T08:46:34.238Z,21.80
2023-01-25T08:49:03.059Z,25.17
2023-01-25T08:51:32.210Z,23.73
2023-01-25T08:54:12.881Z,28.40
2023-01-25T08:56:44.332Z,18.67
2023-01-25T08:59:12.981Z,22.87
2023-01-25T09:01:40.678Z,21.33
2023-01-25T09:04:08.026Z,22.60
2023-01-25T09:06:35.309Z,24.50
2023-01-25T09:09:04.309Z,19.03
2023-01-25T09:11:34.434Z,28.40
2023-01-25T09:14:01.684Z,21.48
2023-01-25T09:16:29.451Z,21.03
2023-01-25T09:19:06.443Z,18.83
2023-01-25T09:21:34.948Z,19.57
2023-01-25T09:24:06.885Z,23.00
2023-01-25T09:26:39.324Z,26.30
2023-01-25T09:29:08.342Z,24.73
2023-01-25T09:31:37.055Z,26.70
2023-01-25T09:34:14.958Z,30.70
2023-01-25T09:36:42.342Z,32.53
2023-01-25T09:39:14.534Z,30.37
2023-01-25T09:42:22.501Z,31.07
2023-01-25T09:45:16.982Z,24.67
2023-01-25T09:47:49.994Z,25.50
2023-01-25T09:50:53.030Z,27.10
2023-01-25T09:53:53.344Z,33.43
2023-01-25T09:56:30.632Z,27.35
2023-01-25T09:59:16.626Z,25.43
2023-01-25T10:02:10.652Z,22.77
2023-01-25T10:04:42.518Z,26.90
2023-01-25T10:07:31.064Z,27.27
2023-01-25T10:10:29.752Z,19.97
2023-01-25T10:12:57.166Z,25.10
2023-01-25T10:15:33.118Z,20.83
2023-01-25T10:18:37.422Z,26.73
2023-01-25T10:21:13.156Z,24.37
2023-01-25T10:23:40.372Z,20.57
2023-01-25T10:26:27.975Z,29.03
2023-01-25T10:29:07.705Z,26.63
2023-01-25T10:31:53.287Z,36.17
2023-01-25T10:34:22.057Z,38.42
2023-01-25T10:36:55.477Z,36.23
2023-01-25T10:39:23.593Z,30.35
2023-01-25T10:42:07.397Z,32.03
2023-01-25T10:44:36.134Z,29.20
2023-01-25T10:47:31.883Z,26.93
2023-01-25T10:50:00.360Z,19.15
2023-01-25T10:52:32.744Z,20.00
2023-01-25T10:55:22.381Z,22.40
2023-01-25T10:57:59.644Z,24.03
2023-01-25T11:00:41.437Z,23.80
2023-01-25T11:03:22.002Z,14.57
2023-01-25T11:05:57.507Z,17.23
2023-01-25T11:08:40.292Z,14.23
2023-01-25T11:11:40.590Z,12.60
2023-01-25T11:16:50.607Z,18.67
2023-01-25T11:19:31.254Z,13.40
2023-01-25T11:22:00.855Z,14.15
2023-01-25T11:24:35.279Z,13.10
2023-01-25T11:27:27.314Z,13.50
2023-01-25T11:30:19.317Z,10.90
2023-01-25T11:32:46.746Z,12.60
2023-01-25T11:35:17.175Z,16.03
2023-01-25T11:38:04.939Z,16.70
2023-01-25T11:40:48.579Z,14.43
2023-01-25T11:44:08.248Z,12.60
2023-01-25T11:46:41.180Z,11.50
2023-01-25T11:49:56.152Z,12.10
2023-01-25T11:52:57.682Z,13.43
2023-01-25T11:55:59.357Z,14.50
2023-01-25T11:59:05.956Z,13.70
2023-01-25T12:02:02.035Z,17.70
2023-01-25T12:04:57.769Z,18.53
2023-01-25T12:07:43.736Z,11.17
2023-01-25T12:10:51.541Z,17.38
2023-01-25T12:13:53.453Z,16.40
2023-01-25T12:16:35.633Z,13.50
2023-01-25T12:19:33.923Z,14.60
2023-01-25T12:22:17.422Z,13.77
2023-01-25T12:25:13.182Z,13.57
2023-01-25T12:28:21.278Z,12.50
2023-01-25T12:31:14.734Z,12.32
2023-01-25T12:34:02.511Z,13.23
2023-01-25T12:36:44.004Z,14.57
2023-01-25T12:39:41.147Z,17.33
2023-01-25T12:42:23.127Z,12.87
2023-01-25T12:45:17.217Z,12.70
2023-01-25T12:47:56.326Z,11.85
2023-01-25T12:50:40.465Z,13.73
2023-01-25T12:53:27.880Z,12.87
2023-01-25T12:55:56.201Z,13.07
2023-01-25T12:58:49.560Z,14.13
2023-01-25T13:01:38.028Z,16.50
2023-01-25T13:04:53.512Z,14.47
2023-01-25T13:07:54.475Z,16.87
2023-01-25T13:13:17.120Z,14.52
2023-01-25T13:15:46.650Z,17.20
2023-01-25T13:18:28.935Z,17.83
2023-01-25T13:21:11.412Z,15.27
2023-01-25T13:23:45.946Z,19.33
2023-01-25T13:26:22.346Z,16.83
2023-01-25T13:28:52.613Z,14.27
2023-01-25T13:31:51.039Z,14.63
2023-01-25T13:34:57.324Z,13.68
2023-01-25T13:37:33.799Z,13.50
2023-01-25T13:40:28.938Z,15.90
2023-01-25T13:43:18.730Z,14.50
2023-01-25T13:45:50.752Z,17.70
2023-01-25T13:48:22.765Z,17.43
2023-01-25T13:50:57.724Z,14.38
2023-01-25T13:53:33.314Z,14.97
2023-01-25T13:56:01.663Z,15.40
2023-01-25T13:58:37.405Z,16.90
2023-01-25T14:01:13.595Z,17.40
2023-01-25T14:03:49.130Z,16.43
2023-01-25T14:06:21.005Z,16.52
2023-01-25T14:08:50.403Z,18.27
2023-01-25T14:11:29.074Z,13.07
2023-01-25T14:14:25.138Z,17.37
2023-01-25T14:17:14.166Z,16.00
2023-01-25T14:19:44.650Z,19.10
2023-01-25T14:22:28.070Z,15.93
2023-01-25T14:25:17.524Z,17.80
2023-01-25T14:28:01.339Z,16.23
2023-01-25T14:30:36.724Z,17.77
2023-01-25T14:33:23.412Z,18.67
2023-01-25T14:35:58.594Z,21.03
2023-01-25T14:38:41.216Z,21.10
2023-01-25T14:41:34.399Z,17.60
2023-01-25T14:44:14.781Z,15.47
2023-01-25T14:46:42.475Z,21.33
2023-01-25T14:49:26.404Z,18.10
2023-01-25T14:52:11.862Z,21.93
2023-01-25T14:54:56.133Z,27.50
2023-01-25T14:57:37.356Z,26.00
2023-01-25T15:00:19.210Z,20.93
2023-01-25T15:03:15.840Z,16.33
2023-01-25T15:05:47.111Z,20.80
2023-01-25T15:08:37.548Z,20.83
2023-01-25T15:11:34.769Z,20.15
2023-01-25T15:14:07.508Z,18.93
2023-01-25T15:16:36.227Z,31.63
2023-01-25T15:19:03.646Z,25.27
2023-01-25T15:21:34.402Z,19.87
2023-01-25T15:26:36.155Z,22.37
2023-01-25T15:29:16.871Z,22.57
2023-01-25T15:31:44.373Z,20.48
2023-01-25T15:34:30.352Z,20.03
2023-01-25T15:36:57.652Z,22.13
2023-01-25T15:39:27.660Z,22.43
2023-01-25T15:41:54.856Z,22.60
2023-01-25T15:44:22.103Z,18.80
2023-01-25T15:46:51.582Z,20.93
2023-01-25T15:49:31.726Z,22.90
2023-01-25T15:51:59.012Z,28.77
2023-01-25T15:54:26.450Z,25.37
2023-01-25T15:56:58.464Z,29.00
2023-01-25T15:59:27.153Z,23.03
2023-01-25T16:01:54.393Z,23.20
2023-01-25T16:04:21.658Z,21.83
2023-01-25T16:06:52.502Z,26.67
2023-01-25T16:09:30.933Z,28.53
2023-01-25T16:12:01.605Z,29.13
2023-01-25T16:14:31.520Z,29.65
2023-01-25T16:17:03.106Z,23.52
2023-01-25T16:19:31.481Z,22.23
2023-01-25T16:21:58.746Z,28.67
2023-01-25T16:24:26.015Z,29.77
2023-01-25T16:26:59.010Z,28.47
2023-01-25T16:29:26.570Z,28.53
2023-01-25T16:31:55.023Z,33.07
2023-01-25T16:34:23.195Z,27.43
2023-01-25T16:36:53.297Z,38.70
2023-01-25T16:39:27.986Z,30.85
2023-01-25T16:41:57.352Z,24.77
2023-01-25T16:44:24.630Z,22.57
2023-01-25T16:46:51.855Z,25.93
2023-01-25T16:49:28.116Z,32.63
2023-01-25T16:51:55.986Z,32.10
2023-01-25T16:54:24.860Z,25.60
2023-01-25T16:56:53.855Z,29.23
2023-01-25T16:59:23.329Z,25.03
2023-01-25T17:01:50.868Z,22.57
2023-01-25T17:04:18.711Z,24.50
2023-01-25T17:06:50.431Z,19.07
2023-01-25T17:09:23.992Z,22.27
2023-01-25T17:11:53.658Z,24.80
2023-01-25T17:14:22.282Z,20.50
2023-01-25T17:16:51.896Z,24.13
2023-01-25T17:19:20.123Z,26.30
2023-01-25T17:21:48.348Z,22.50
2023-01-25T17:24:19.189Z,29.67
2023-01-25T17:26:47.029Z,20.87
2023-01-25T17:29:14.461Z,21.93
2023-01-25T17:31:42.462Z,23.10
2023-01-25T17:34:16.314Z,25.43
2023-01-25T17:36:44.760Z,20.63
2023-01-25T17:39:17.643Z,32.03
2023-01-25T17:41:49.742Z,31.63
2023-01-25T17:44:23.230Z,25.90
2023-01-25T17:46:51.478Z,30.00
2023-01-25T17:49:18.995Z,30.83
2023-01-25T17:51:46.772Z,29.03
2023-01-25T17:54:14.328Z,28.93
2023-01-25T17:56:41.652Z,32.03
2023-01-25T17:59:11.445Z,30.60
2023-01-25T18:01:39.612Z,24.83
2023-01-25T18:04:08.501Z,28.90
2023-01-25T18:06:36.272Z,29.57
2023-01-25T18:09:08.272Z,29.20
2023-01-25T18:11:37.997Z,22.03
2023-01-25T18:14:08.985Z,26.60
2023-01-25T18:16:39.752Z,39.77
2023-01-25T18:21:36.460Z,32.37
2023-01-25T18:24:26.077Z,31.43
2023-01-25T18:27:00.576Z,28.63
2023-01-25T18:30:23.085Z,38.63
2023-01-25T18:32:50.252Z,36.03
2023-01-25T18:35:17.521Z,36.37
2023-01-25T18:37:46.577Z,41.30
2023-01-25T18:40:15.633Z,54.27
2023-01-25T18:42:42.932Z,38.87
2023-01-25T18:45:12.814Z,43.83
2023-01-25T18:47:40.216Z,43.50
2023-01-25T18:50:13.983Z,43.20
2023-01-25T18:52:41.268Z,43.23
2023-01-25T18:55:09.194Z,47.60
2023-01-25T18:57:36.626Z,50.07
2023-01-25T19:00:06.253Z,39.13
2023-01-25T19:02:36.118Z,39.67
2023-01-25T19:05:03.542Z,37.53
2023-01-25T19:07:30.819Z,33.30
2023-01-25T19:09:58.164Z,30.33
2023-01-25T19:12:27.696Z,36.77
2023-01-25T19:14:55.038Z,41.63
2023-01-25T19:17:22.402Z,41.83
2023-01-25T19:19:49.551Z,36.20
2023-01-25T19:22:16.830Z,34.80
2023-01-25T19:24:44.165Z,29.97
2023-01-25T19:27:11.474Z,32.87
2023-01-25T19:29:38.896Z,33.00
2023-01-25T19:32:06.449Z,25.90
2023-01-25T19:34:33.747Z,27.40
2023-01-25T19:37:01.015Z,22.13
2023-01-25T19:39:28.335Z,24.70
2023-01-25T19:41:55.631Z,25.03
2023-01-25T19:44:24.017Z,24.40
2023-01-25T19:46:51.324Z,28.83
2023-01-25T19:49:18.879Z,28.87
2023-01-25T19:51:52.767Z,30.73
2023-01-25T19:54:21.761Z,30.53
2023-01-25T19:56:50.052Z,39.80
2023-01-25T19:59:24.920Z,42.10
2023-01-25T20:01:52.694Z,41.90
2023-01-25T20:04:23.668Z,39.20
2023-01-25T20:06:52.157Z,38.73
2023-01-25T20:09:20.500Z,34.87
2023-01-25T20:11:47.804Z,36.90
2023-01-25T20:14:15.853Z,35.57
2023-01-25T20:16:43.467Z,32.30
2023-01-25T20:19:12.526Z,26.27
2023-01-25T20:21:40.376Z,24.83
2023-01-25T20:24:10.313Z,28.40
2023-01-25T20:26:40.347Z,24.58
2023-01-25T20:29:08.203Z,25.77
2023-01-25T20:31:44.836Z,33.07
2023-01-25T20:34:18.847Z,37.47
2023-01-25T20:36:47.217Z,31.30
2023-01-25T20:39:18.394Z,34.37
2023-01-25T20:41:47.189Z,27.23
2023-01-25T20:44:18.738Z,30.43
2023-01-25T20:46:46.181Z,31.87
2023-01-25T20:49:18.742Z,32.03
2023-01-25T20:51:46.965Z,35.33
2023-01-25T20:54:15.289Z,29.93
2023-01-25T20:56:43.219Z,32.40
2023-01-25T20:59:10.875Z,33.50
2023-01-25T21:01:40.714Z,31.53
2023-01-25T21:04:09.740Z,36.07
2023-01-25T21:06:38.587Z,36.73
2023-01-25T21:09:05.947Z,44.30
2023-01-25T21:11:33.493Z,42.57
2023-01-25T21:14:01.047Z,39.63
2023-01-25T21:16:28.419Z,36.57
2023-01-25T21:18:58.749Z,26.30
2023-01-25T21:21:29.312Z,28.08
2023-01-25T21:24:00.347Z,35.10
2023-01-25T21:26:32.340Z,28.70
2023-01-25T21:29:01.668Z,23.97
2023-01-25T21:31:33.008Z,31.07
2023-01-25T21:34:01.692Z,24.10
2023-01-25T21:36:31.582Z,20.33
2023-01-25T21:38:59.307Z,25.02
2023-01-25T21:41:30.393Z,28.03
2023-01-25T21:44:18.817Z,26.87
2023-01-25T21:47:12.326Z,27.67
2023-01-25T21:49:52.632Z,26.80
2023-01-25T21:52:19.919Z,24.30
2023-01-25T21:54:47.109Z,30.57
2023-01-25T21:57:14.395Z,29.60
2023-01-25T21:59:41.589Z,29.27
2023-01-25T22:02:14.079Z,28.07
2023-01-25T22:04:41.462Z,27.80
2023-01-25T22:07:09.719Z,32.53
2023-01-25T22:09:36.995Z,29.07
2023-01-25T22:12:04.596Z,28.90
2023-01-25T22:14:31.830Z,26.30
2023-01-25T22:16:59.019Z,26.07
2023-01-25T22:19:28.797Z,30.80
2023-01-25T22:21:55.949Z,30.45
2023-01-25T22:24:23.355Z,27.97
2023-01-25T22:27:08.633Z,26.97
2023-01-25T22:29:35.911Z,25.30
2023-01-25T22:32:03.172Z,26.33
2023-01-25T22:34:33.556Z,28.67
2023-01-25T22:37:00.951Z,23.50
2023-01-25T22:39:28.255Z,27.80
2023-01-25T22:41:56.615Z,21.13
2023-01-25T22:44:26.382Z,26.47
2023-01-25T22:46:53.906Z,27.90
2023-01-25T22:49:21.196Z,25.20
2023-01-25T22:51:48.490Z,20.33
2023-01-25T22:54:15.740Z,23.40
2023-01-25T22:56:43.108Z,21.57
2023-01-25T22:59:14.877Z,25.80
2023-01-25T23:01:42.132Z,24.17
2023-01-25T23:04:09.389Z,26.30
2023-01-25T23:06:37.521Z,25.57
2023-01-25T23:09:06.810Z,23.60
2023-01-25T23:11:38.573Z,21.03
2023-01-25T23:14:27.392Z,22.80
2023-01-25T23:17:14.696Z,27.10
2023-01-25T23:19:42.032Z,32.90
2023-01-25T23:22:09.275Z,38.17
2023-01-25T23:24:36.486Z,30.83
2023-01-25T23:27:03.715Z,28.67
2023-01-25T23:29:33.443Z,29.57
2023-01-25T23:32:00.817Z,30.87
2023-01-25T23:34:28.055Z,33.40
2023-01-25T23:36:55.283Z,29.87
2023-01-25T23:39:23.665Z,27.70
2023-01-25T23:41:52.473Z,25.43
2023-01-25T23:44:19.741Z,22.87
2023-01-25T23:46:46.991Z,27.73
2023-01-25T23:49:14.350Z,28.30
2023-01-25T23:51:41.644Z,30.03
2023-01-25T23:54:08.928Z,27.47
2023-01-25T23:56:36.158Z,25.43
2023-01-25T23:59:07.772Z,24.10
